Time;durP1;ratioP1;P1;durP2;ratioP2;P2;SDS_P1;SDS_P2;PMS_P1;PMS_P2;Temp;Humidity;BMP_temperature;BMP_pressure;BME280_temperature;BME280_humidity;BME280_pressure;Samples;Min_cycle;Max_cycle;Signal;HPM_P1;HPM_P2
2020/12/25 00:00:00;;;;;;;10.37;5.20;;;;;;;4.41;73.75;99056.41;118812;1148;104553;-70
2020/12/25 00:02:28;;;;;;;11.57;6.47;;;;;;;4.39;73.54;99062.79;118866;1147;104649;-69
2020/12/25 00:04:56;;;;;;;11.13;6.20;;;;;;;4.41;73.59;99066.15;118769;1147;104545;-69
2020/12/25 00:07:24;;;;;;;7.13;4.23;;;;;;;4.43;73.34;99061.55;118349;1147;104579;-69
2020/12/25 00:09:53;;;;;;;9.03;5.17;;;;;;;4.46;73.39;99069.17;118344;1147;104538;-70
2020/12/25 00:12:21;;;;;;;7.40;5.10;;;;;;;4.47;73.47;99060.28;118853;1148;104624;-69
2020/12/25 00:14:49;;;;;;;14.67;7.70;;;;;;;4.50;73.41;99070.55;118868;1147;104471;-71
2020/12/25 00:17:18;;;;;;;16.47;9.27;;;;;;;4.53;73.48;99072.91;118439;1148;104520;-70
2020/12/25 00:19:46;;;;;;;9.87;5.53;;;;;;;4.56;73.18;99077.92;118827;1147;104531;-69
2020/12/25 00:22:14;;;;;;;14.00;7.37;;;;;;;4.57;73.35;99074.28;118895;1148;104535;-70
2020/12/25 00:24:42;;;;;;;18.23;10.33;;;;;;;4.60;73.63;99081.08;118881;1147;104554;-69
2020/12/25 00:27:10;;;;;;;16.17;9.73;;;;;;;4.61;73.43;99083.59;118848;1148;104533;-72
2020/12/25 00:29:39;;;;;;;11.23;6.30;;;;;;;4.58;73.42;99096.25;118880;1148;104665;-70
2020/12/25 00:32:07;;;;;;;10.67;6.17;;;;;;;4.57;73.48;99091.95;118882;1148;104642;-69
2020/12/25 00:34:35;;;;;;;13.80;7.87;;;;;;;4.58;73.42;99099.75;118854;1147;104538;-70
2020/12/25 00:37:03;;;;;;;9.90;6.10;;;;;;;4.57;73.34;99100.70;118822;1147;104541;-69
2020/12/25 00:39:31;;;;;;;12.43;7.67;;;;;;;4.55;73.51;99099.20;118868;1147;104484;-70
2020/12/25 00:41:59;;;;;;;15.97;8.70;;;;;;;4.55;73.68;99100.02;118863;1147;104521;-70
2020/12/25 00:44:27;;;;;;;18.20;10.43;;;;;;;4.53;73.45;99099.33;118820;1147;105059;-70
2020/12/25 00:46:55;;;;;;;10.43;6.60;;;;;;;4.55;73.08;99104.48;118807;1147;104479;-70
2020/12/25 00:49:24;;;;;;;8.73;5.10;;;;;;;4.53;73.38;99113.36;118828;1147;104492;-70
2020/12/25 00:51:53;;;;;;;7.70;5.33;;;;;;;4.50;73.47;99123.38;118873;1147;105036;-70
2020/12/25 00:54:21;;;;;;;7.20;4.55;;;;;;;4.51;72.79;99138.27;118974;1147;104554;-70
2020/12/25 00:57:02;;;;;;;8.37;5.40;;;;;;;4.49;73.69;99135.77;118837;1148;104553;-70
2020/12/25 00:59:39;;;;;;;5.33;3.93;;;;;;;4.48;73.31;99133.25;118524;1147;104540;-70
2020/12/25 01:02:08;;;;;;;4.80;3.50;;;;;;;4.48;73.54;99135.89;118876;1147;104605;-70
2020/12/25 01:04:36;;;;;;;5.53;3.30;;;;;;;4.50;73.56;99155.08;118834;1147;104556;-70
2020/12/25 01:07:06;;;;;;;5.05;3.85;;;;;;;4.53;73.52;99155.63;118849;1147;104622;-69
2020/12/25 01:09:35;;;;;;;5.03;3.53;;;;;;;4.52;73.56;99167.19;118895;1147;104611;-69
2020/12/25 01:12:04;;;;;;;5.73;4.03;;;;;;;4.50;73.50;99166.50;118929;1148;104972;-70
2020/12/25 01:14:33;;;;;;;5.37;3.97;;;;;;;4.50;73.34;99163.86;118807;1147;104512;-71
2020/12/25 01:17:01;;;;;;;4.60;3.25;;;;;;;4.50;73.91;99166.50;118782;1147;104520;-71
2020/12/25 01:19:29;;;;;;;4.77;3.10;;;;;;;4.49;73.38;99162.17;118678;1147;104553;-70
2020/12/25 01:21:57;;;;;;;4.80;2.80;;;;;;;4.50;73.16;99163.00;118651;1147;104588;-70
2020/12/25 01:24:27;;;;;;;6.30;3.37;;;;;;;4.49;73.63;99158.70;118837;1147;104552;-70
2020/12/25 01:26:55;;;;;;;5.70;3.20;;;;;;;4.45;73.22;99154.69;118868;1147;104550;-70
2020/12/25 01:29:23;;;;;;;3.57;2.73;;;;;;;4.46;73.69;99169.55;118847;1147;104598;-70
2020/12/25 01:31:52;;;;;;;4.75;2.80;;;;;;;4.47;73.65;99168.59;118877;1147;104722;-70
2020/12/25 01:34:20;;;;;;;4.30;2.97;;;;;;;4.51;73.60;99172.61;118850;1148;104549;-70
2020/12/25 01:36:48;;;;;;;14.87;7.57;;;;;;;4.53;73.45;99170.66;118919;1147;104495;-70
2020/12/25 01:39:16;;;;;;;6.33;3.33;;;;;;;4.52;73.55;99174.26;118846;1146;104467;-69
2020/12/25 01:41:44;;;;;;;4.97;2.90;;;;;;;4.52;73.53;99184.83;118884;1148;104538;-69
2020/12/25 01:44:12;;;;;;;4.43;2.90;;;;;;;4.55;73.45;99189.84;118916;1147;104525;-69
2020/12/25 01:46:41;;;;;;;4.27;2.60;;;;;;;4.56;73.44;99207.38;118828;1148;104482;-70
2020/12/25 01:49:09;;;;;;;4.57;2.53;;;;;;;4.58;73.17;99200.14;118934;1147;104547;-70
2020/12/25 01:51:38;;;;;;;5.37;2.67;;;;;;;4.58;73.43;99207.20;118862;1147;104545;-69
2020/12/25 01:54:07;;;;;;;3.53;2.30;;;;;;;4.57;73.24;99209.02;118850;1147;104512;-69
2020/12/25 01:56:35;;;;;;;5.50;3.25;;;;;;;4.55;73.38;99202.22;118731;1147;105746;-69
2020/12/25 01:59:04;;;;;;;4.40;2.30;;;;;;;4.57;73.45;99208.20;118353;1147;104496;-69
2020/12/25 02:01:32;;;;;;;4.27;2.40;;;;;;;4.59;73.00;99216.81;118356;1148;104553;-69
2020/12/25 02:04:00;;;;;;;4.03;2.30;;;;;;;4.59;73.42;99220.28;118783;1146;104578;-70
2020/12/25 02:06:38;;;;;;;4.90;2.30;;;;;;;4.60;73.11;99226.39;118828;1147;104540;-70
2020/12/25 02:09:07;;;;;;;3.80;2.47;;;;;;;4.59;73.44;99230.84;118826;1146;104473;-69
2020/12/25 02:11:37;;;;;;;4.10;2.60;;;;;;;4.54;73.29;99230.42;118601;1147;104620;-69
2020/12/25 02:14:06;;;;;;;4.77;2.60;;;;;;;4.53;73.55;99240.17;118345;1147;104477;-69
2020/12/25 02:16:34;;;;;;;3.90;2.33;;;;;;;4.55;73.85;99237.39;118600;1148;104547;-69
2020/12/25 02:19:02;;;;;;;4.87;2.70;;;;;;;4.56;73.50;99244.36;118788;1147;104547;-69
2020/12/25 02:21:30;;;;;;;4.80;2.20;;;;;;;4.58;73.41;99242.41;118536;1148;104562;-69
2020/12/25 02:23:58;;;;;;;3.45;2.40;;;;;;;4.53;73.55;99250.73;118546;1147;104528;-70
2020/12/25 02:26:26;;;;;;;5.40;2.30;;;;;;;4.52;73.53;99256.16;118612;1147;104480;-73
2020/12/25 02:28:54;;;;;;;4.13;2.20;;;;;;;4.51;73.70;99257.14;118372;1147;104484;-69
2020/12/25 02:31:23;;;;;;;3.37;2.20;;;;;;;4.52;73.69;99257.01;118893;1147;104732;-70
2020/12/25 02:33:51;;;;;;;3.60;2.40;;;;;;;4.55;73.77;99257.70;118528;1147;104950;-69
2020/12/25 02:36:19;;;;;;;4.00;2.57;;;;;;;4.56;73.87;99251.42;118672;1147;104474;-69
2020/12/25 02:38:47;;;;;;;5.57;3.03;;;;;;;4.58;73.68;99266.19;118672;1148;104447;-70
2020/12/25 02:41:15;;;;;;;4.30;2.85;;;;;;;4.57;73.87;99264.50;118690;1147;104617;-70
2020/12/25 02:43:43;;;;;;;4.20;2.27;;;;;;;4.55;73.51;99263.81;118362;1147;104519;-70
2020/12/25 02:46:12;;;;;;;7.20;3.70;;;;;;;4.53;74.06;99265.76;118371;1147;104457;-70
2020/12/25 02:48:40;;;;;;;7.55;3.90;;;;;;;4.53;73.97;99271.05;118327;1147;104996;-69
2020/12/25 02:51:08;;;;;;;4.63;2.80;;;;;;;4.51;74.10;99275.63;118782;1147;104628;-69
2020/12/25 02:53:36;;;;;;;3.80;2.60;;;;;;;4.52;73.76;99285.21;118705;1148;104549;-70
2020/12/25 02:56:04;;;;;;;3.95;2.60;;;;;;;4.57;74.04;99280.36;118647;1148;104501;-70
2020/12/25 02:58:33;;;;;;;4.07;2.60;;;;;;;4.63;74.62;99287.72;118867;1147;104538;-70
2020/12/25 03:01:01;;;;;;;4.03;2.70;;;;;;;4.67;74.25;99283.83;118838;1147;104733;-70
2020/12/25 03:03:29;;;;;;;3.90;2.67;;;;;;;4.70;73.80;99299.41;118819;1147;104522;-71
2020/12/25 03:05:57;;;;;;;4.80;3.00;;;;;;;4.69;73.99;99297.73;118777;1147;104467;-70
2020/12/25 03:08:25;;;;;;;4.35;3.00;;;;;;;4.69;74.18;99297.73;118552;1147;104550;-69
2020/12/25 03:10:53;;;;;;;4.60;2.90;;;;;;;4.68;74.12;99306.65;118926;1147;104537;-70
2020/12/25 03:13:21;;;;;;;3.50;2.43;;;;;;;4.69;74.46;99303.02;118928;1148;104519;-70
2020/12/25 03:15:50;;;;;;;4.60;2.93;;;;;;;4.71;74.11;99301.09;118646;1147;104466;-70
2020/12/25 03:18:18;;;;;;;7.70;4.07;;;;;;;4.75;74.15;99311.38;118440;1148;104554;-70
2020/12/25 03:20:46;;;;;;;8.23;3.80;;;;;;;4.72;74.23;99308.03;118790;1147;104547;-69
2020/12/25 03:23:15;;;;;;;4.87;2.77;;;;;;;4.70;74.23;99320.55;118925;1147;104551;-70
2020/12/25 03:25:43;;;;;;;4.50;3.00;;;;;;;4.72;74.15;99323.06;118843;1148;104476;-70
2020/12/25 03:28:11;;;;;;;4.13;2.40;;;;;;;4.72;74.19;99315.96;118816;1147;104476;-69
2020/12/25 03:30:40;;;;;;;4.97;3.03;;;;;;;4.74;74.19;99320.29;118893;1148;104640;-70
2020/12/25 03:33:08;;;;;;;5.97;4.13;;;;;;;4.72;74.12;99329.17;118874;1148;104626;-70
2020/12/25 03:35:36;;;;;;;8.27;5.07;;;;;;;4.72;74.25;99326.53;118859;1147;104546;-70
2020/12/25 03:38:04;;;;;;;7.63;4.77;;;;;;;4.70;74.34;99325.84;118905;1147;104473;-70
2020/12/25 03:40:34;;;;;;;6.27;3.77;;;;;;;4.68;74.16;99327.78;118845;1147;104633;-70
2020/12/25 03:43:02;;;;;;;5.93;3.50;;;;;;;4.67;74.91;99335.84;118921;1148;104598;-70
2020/12/25 03:45:32;;;;;;;5.90;4.30;;;;;;;4.66;74.59;99334.19;118666;1148;104468;-70
2020/12/25 03:48:00;;;;;;;7.80;4.97;;;;;;;4.64;74.68;99336.14;118729;1147;104462;-70
2020/12/25 03:50:29;;;;;;;8.43;5.17;;;;;;;4.60;74.46;99340.86;118930;1147;104526;-70
2020/12/25 03:52:57;;;;;;;7.17;4.50;;;;;;;4.58;74.66;99336.66;118854;1147;104549;-69
2020/12/25 03:55:25;;;;;;;6.17;4.00;;;;;;;4.56;74.81;99343.89;118896;1148;104482;-69
2020/12/25 03:57:54;;;;;;;5.97;4.00;;;;;;;4.52;74.99;99344.19;118838;1147;104495;-71
2020/12/25 04:00:22;;;;;;;5.87;3.83;;;;;;;4.52;74.71;99348.61;118896;1147;104732;-70
2020/12/25 04:02:50;;;;;;;6.33;3.90;;;;;;;4.51;74.44;99353.06;118838;1148;104513;-70
2020/12/25 04:05:18;;;;;;;5.97;4.07;;;;;;;4.49;74.96;99347.09;118809;1147;104465;-69
2020/12/25 04:07:46;;;;;;;6.03;3.80;;;;;;;4.49;74.82;99346.27;118907;1147;104591;-70
2020/12/25 04:10:14;;;;;;;4.90;3.60;;;;;;;4.49;74.96;99339.16;118879;1147;104480;-69
2020/12/25 04:12:43;;;;;;;6.77;3.60;;;;;;;4.49;75.47;99343.63;118837;1147;104538;-70
2020/12/25 04:15:11;;;;;;;5.40;3.70;;;;;;;4.51;74.88;99352.24;118847;1147;104469;-70
2020/12/25 04:17:39;;;;;;;6.07;3.80;;;;;;;4.53;75.06;99339.73;118921;1148;104546;-70
2020/12/25 04:20:07;;;;;;;4.80;3.45;;;;;;;4.52;74.93;99354.75;118905;1147;104615;-70
2020/12/25 04:22:35;;;;;;;4.87;3.50;;;;;;;4.55;75.08;99350.99;118443;1147;104511;-70
2020/12/25 04:25:03;;;;;;;4.33;3.20;;;;;;;4.57;75.18;99346.41;118381;1147;104545;-70
2020/12/25 04:27:32;;;;;;;5.40;3.40;;;;;;;4.56;75.46;99343.89;118347;1147;104550;-70
2020/12/25 04:30:00;;;;;;;5.33;3.43;;;;;;;4.56;75.24;99352.68;118373;1148;104631;-70
2020/12/25 04:32:28;;;;;;;5.10;3.43;;;;;;;4.57;75.12;99353.50;118469;1148;104564;-70
2020/12/25 04:34:56;;;;;;;4.73;3.30;;;;;;;4.56;75.17;99352.68;118829;1147;104556;-69
2020/12/25 04:37:26;;;;;;;4.10;2.90;;;;;;;4.53;75.32;99352.94;118920;1148;104457;-69
2020/12/25 04:39:54;;;;;;;4.20;2.90;;;;;;;4.50;75.12;99356.70;118894;1147;104652;-69
2020/12/25 04:42:26;;;;;;;4.90;3.10;;;;;;;4.51;75.40;99360.99;118827;1147;104628;-70
2020/12/25 04:44:54;;;;;;;4.10;3.00;;;;;;;4.51;75.40;99368.92;118423;1147;104572;-69
2020/12/25 04:47:23;;;;;;;4.45;3.05;;;;;;;4.50;75.33;99367.27;118898;1147;104860;-70
2020/12/25 04:49:52;;;;;;;4.80;3.35;;;;;;;4.48;75.35;99371.85;118908;1148;104599;-70
2020/12/25 04:52:20;;;;;;;4.70;3.10;;;;;;;4.48;75.43;99374.49;118810;1148;104510;-69
2020/12/25 04:54:48;;;;;;;4.87;2.90;;;;;;;4.51;75.60;99376.02;118884;1148;104566;-70
2020/12/25 04:57:17;;;;;;;4.55;3.00;;;;;;;4.52;75.30;99375.03;118850;1147;104458;-70
2020/12/25 04:59:45;;;;;;;5.80;3.57;;;;;;;4.52;75.59;99372.39;118917;1147;104724;-70
2020/12/25 05:02:15;;;;;;;5.15;3.10;;;;;;;4.50;75.76;99380.47;118867;1147;104563;-69
2020/12/25 05:04:44;;;;;;;4.55;3.10;;;;;;;4.49;75.51;99376.15;118858;1147;104517;-70
2020/12/25 05:07:15;;;;;;;4.23;2.90;;;;;;;4.48;74.96;99390.34;118817;1147;104544;-70
2020/12/25 05:09:43;;;;;;;4.95;2.92;;;;;;;4.49;75.49;99392.00;118869;1147;104451;-70
2020/12/25 05:12:12;;;;;;;10.00;5.90;;;;;;;4.50;75.16;99393.69;118907;1147;104565;-70
2020/12/25 05:14:43;;;;;;;7.67;4.60;;;;;;;4.47;75.71;99395.76;118804;1147;104550;-70
2020/12/25 05:17:13;;;;;;;10.30;6.72;;;;;;;4.47;74.98;99404.51;118881;1147;104479;-69
2020/12/25 05:19:43;;;;;;;9.20;5.67;;;;;;;4.45;75.33;99403.81;118932;1147;104561;-70
2020/12/25 05:22:11;;;;;;;8.83;5.00;;;;;;;4.46;75.36;99417.84;118855;1148;104458;-69
2020/12/25 05:24:40;;;;;;;9.23;5.23;;;;;;;4.44;75.29;99422.42;118924;1147;105716;-69
2020/12/25 05:27:13;;;;;;;8.93;4.70;;;;;;;4.41;75.54;99420.07;118887;1147;104474;-69
2020/12/25 05:29:41;;;;;;;5.57;3.77;;;;;;;4.42;75.38;99419.91;118887;1147;104580;-69
2020/12/25 05:32:10;;;;;;;6.17;3.87;;;;;;;4.42;75.51;99421.73;118883;1147;104548;-69
2020/12/25 05:34:38;;;;;;;22.57;13.40;;;;;;;4.42;75.58;99427.84;118830;1147;104476;-69
2020/12/25 05:37:07;;;;;;;10.55;5.90;;;;;;;4.41;74.68;99425.36;118868;1147;104476;-68
2020/12/25 05:39:38;;;;;;;20.97;8.77;;;;;;;4.39;74.90;99427.27;118923;1147;104602;-69
2020/12/25 05:42:07;;;;;;;15.27;6.43;;;;;;;4.43;75.13;99436.63;118884;1147;104586;-69
2020/12/25 05:44:44;;;;;;;17.30;8.03;;;;;;;4.45;75.06;99442.60;118812;1147;104593;-69
2020/12/25 05:47:14;;;;;;;17.65;8.75;;;;;;;4.43;75.08;99442.73;118890;1147;104870;-69
2020/12/25 05:49:43;;;;;;;18.83;9.93;;;;;;;4.41;74.63;99449.12;118921;1147;104548;-70
2020/12/25 05:52:13;;;;;;;9.80;5.30;;;;;;;4.41;74.91;99457.05;118688;1147;104555;-70
2020/12/25 05:54:44;;;;;;;9.10;4.37;;;;;;;4.37;75.12;99463.55;118983;1146;104553;-70
2020/12/25 05:57:14;;;;;;;15.33;7.93;;;;;;;4.36;74.88;99467.17;118908;1147;104450;-70
2020/12/25 05:59:48;;;;;;;12.07;5.97;;;;;;;4.34;75.03;99472.58;118920;1147;104521;-70
2020/12/25 06:02:17;;;;;;;9.77;4.87;;;;;;;4.33;74.90;99474.39;118857;1147;105010;-69
2020/12/25 06:04:46;;;;;;;8.37;4.07;;;;;;;4.31;74.75;99483.39;118871;1147;104557;-69
2020/12/25 06:07:22;;;;;;;11.70;5.80;;;;;;;4.31;74.97;99486.03;118901;1146;104585;-70
2020/12/25 06:09:58;;;;;;;13.93;7.10;;;;;;;4.30;74.76;99487.84;118858;1147;104503;-70
2020/12/25 06:12:41;;;;;;;13.37;6.73;;;;;;;4.35;75.47;99499.81;118813;1147;104554;-70
2020/12/25 06:15:11;;;;;;;14.97;7.73;;;;;;;4.35;74.50;99494.53;118739;1147;104559;-69
2020/12/25 06:17:46;;;;;;;11.20;5.23;;;;;;;4.31;74.51;99500.09;118564;1147;104565;-69
2020/12/25 06:20:18;;;;;;;15.63;7.57;;;;;;;4.30;74.64;99503.70;118386;1147;104465;-70
2020/12/25 06:22:46;;;;;;;18.97;8.83;;;;;;;4.30;74.50;99519.54;118423;1147;104916;-70
2020/12/25 06:25:17;;;;;;;11.37;5.00;;;;;;;4.32;74.65;99522.88;118711;1147;104556;-71
2020/12/25 06:27:51;;;;;;;15.77;7.10;;;;;;;4.32;74.45;99527.34;118880;1147;104494;-70
2020/12/25 06:30:29;;;;;;;11.63;5.63;;;;;;;4.30;74.62;99534.55;118882;1148;104615;-71
2020/12/25 06:32:58;;;;;;;12.00;5.57;;;;;;;4.26;74.48;99533.15;118854;1147;104537;-70
2020/12/25 06:35:34;;;;;;;7.00;3.90;;;;;;;4.23;74.26;99539.51;118850;1147;104482;-70
2020/12/25 06:38:09;;;;;;;7.77;3.63;;;;;;;4.22;74.51;99544.94;118818;1146;104460;-70
2020/12/25 06:40:38;;;;;;;6.33;2.83;;;;;;;4.22;74.50;99560.78;118896;1147;104609;-70
2020/12/25 06:43:16;;;;;;;7.30;3.30;;;;;;;4.24;74.35;99557.04;118783;1147;104879;-71
2020/12/25 06:45:50;;;;;;;5.85;2.40;;;;;;;4.22;74.01;99558.97;118579;1147;104480;-70
2020/12/25 06:48:19;;;;;;;11.50;5.83;;;;;;;4.21;73.92;99565.20;118847;1147;104460;-71
2020/12/25 06:50:52;;;;;;;9.20;4.00;;;;;;;4.20;74.36;99563.55;118963;1147;104659;-71
2020/12/25 06:53:34;;;;;;;8.90;4.53;;;;;;;4.18;74.09;99572.58;118848;1147;104487;-71
2020/12/25 06:56:13;;;;;;;14.18;6.65;;;;;;;4.20;74.11;99566.19;118825;1147;104548;-70
2020/12/25 06:58:44;;;;;;;7.57;3.80;;;;;;;4.19;73.95;99579.52;118880;1147;104526;-70
2020/12/25 07:01:13;;;;;;;12.90;7.07;;;;;;;4.19;73.71;99580.34;118939;1147;104621;-70
2020/12/25 07:03:42;;;;;;;12.03;6.00;;;;;;;4.17;74.01;99586.73;118958;1147;104539;-70
2020/12/25 07:06:12;;;;;;;11.60;6.63;;;;;;;4.15;73.49;99586.02;118825;1148;104812;-71
2020/12/25 07:08:54;;;;;;;8.50;4.37;;;;;;;4.12;73.32;99595.05;118855;1147;104562;-70
2020/12/25 07:11:22;;;;;;;7.93;4.10;;;;;;;4.10;73.67;99592.53;118850;1147;104616;-70
2020/12/25 07:13:50;;;;;;;11.10;5.70;;;;;;;4.11;73.64;99598.64;118862;1147;104478;-70
2020/12/25 07:16:18;;;;;;;7.85;3.80;;;;;;;4.09;73.38;99601.40;118894;1147;104492;-70
2020/12/25 07:18:47;;;;;;;14.40;7.80;;;;;;;4.11;73.44;99593.36;118843;1147;104532;-71
2020/12/25 07:21:15;;;;;;;7.30;3.80;;;;;;;4.15;73.63;99605.33;118825;1148;104613;-72
2020/12/25 07:23:47;;;;;;;11.83;5.67;;;;;;;4.17;73.71;99598.13;118863;1147;104633;-70
2020/12/25 07:26:17;;;;;;;7.83;4.00;;;;;;;4.19;73.75;99606.75;118872;1148;104501;-71
2020/12/25 07:28:46;;;;;;;8.30;3.87;;;;;;;4.16;73.39;99598.24;118859;1148;104554;-71
2020/12/25 07:31:15;;;;;;;5.90;3.53;;;;;;;4.13;73.45;99604.63;118935;1147;104557;-71
2020/12/25 07:33:43;;;;;;;9.97;5.70;;;;;;;4.16;73.31;99607.02;118803;1147;104665;-71
2020/12/25 07:36:12;;;;;;;7.10;3.60;;;;;;;4.20;73.61;99607.61;118863;1147;104607;-71
2020/12/25 07:38:40;;;;;;;6.70;3.73;;;;;;;4.21;73.69;99610.09;118838;1147;104477;-70
2020/12/25 07:41:08;;;;;;;7.67;3.30;;;;;;;4.19;73.51;99612.03;118873;1148;104549;-69
2020/12/25 07:43:37;;;;;;;4.70;2.70;;;;;;;4.19;73.35;99625.23;118869;1148;104522;-70
2020/12/25 07:46:10;;;;;;;8.70;4.20;;;;;;;4.16;73.45;99628.15;118836;1147;104556;-70
2020/12/25 07:48:40;;;;;;;6.13;3.67;;;;;;;4.16;73.49;99633.43;118842;1147;104473;-69
2020/12/25 07:51:09;;;;;;;8.30;4.20;;;;;;;4.18;73.91;99646.51;118810;1147;104608;-70
2020/12/25 07:53:48;;;;;;;7.15;3.80;;;;;;;4.13;73.42;99633.67;118854;1147;104911;-70
2020/12/25 07:56:20;;;;;;;7.53;4.40;;;;;;;4.10;73.76;99642.69;118805;1147;104588;-69
2020/12/25 07:58:50;;;;;;;9.40;4.97;;;;;;;4.10;74.09;99642.69;118857;1147;104479;-70
2020/12/25 08:01:21;;;;;;;13.70;9.07;;;;;;;4.07;74.27;99652.66;118915;1147;104596;-69
2020/12/25 08:03:50;;;;;;;8.57;4.80;;;;;;;4.07;73.65;99650.02;118792;1148;105107;-69
2020/12/25 08:06:20;;;;;;;6.90;4.00;;;;;;;4.08;73.97;99652.55;118599;1147;104552;-69
2020/12/25 08:08:52;;;;;;;8.85;5.60;;;;;;;4.09;74.27;99651.56;118595;1147;104482;-70
2020/12/25 08:11:22;;;;;;;7.03;4.63;;;;;;;4.09;73.86;99656.84;118847;1147;104612;-70
2020/12/25 08:13:52;;;;;;;10.83;7.40;;;;;;;4.08;73.70;99649.91;118602;1147;104468;-71
2020/12/25 08:16:21;;;;;;;26.23;15.10;;;;;;;4.09;73.65;99653.38;118830;1147;105004;-70
2020/12/25 08:18:50;;;;;;;13.10;6.97;;;;;;;4.11;72.95;99662.83;118848;1147;104889;-69
2020/12/25 08:21:18;;;;;;;12.85;7.95;;;;;;;4.10;73.72;99663.81;118865;1147;104685;-70
2020/12/25 08:23:47;;;;;;;17.87;11.73;;;;;;;4.12;73.15;99658.41;118814;1147;104476;-70
2020/12/25 08:26:15;;;;;;;13.60;8.50;;;;;;;4.18;72.69;99667.63;118882;1147;104535;-70
2020/12/25 08:28:44;;;;;;;9.33;5.60;;;;;;;4.20;72.75;99665.70;118838;1147;104479;-70
2020/12/25 08:31:17;;;;;;;20.20;13.73;;;;;;;4.27;73.58;99678.27;118888;1147;104630;-70
2020/12/25 08:33:54;;;;;;;27.20;15.67;;;;;;;4.32;73.26;99675.23;118787;1147;104586;-69
2020/12/25 08:36:23;;;;;;;9.20;5.60;;;;;;;4.37;72.53;99677.48;118686;1147;104476;-70
2020/12/25 08:38:51;;;;;;;82.20;38.55;;;;;;;4.38;73.04;99680.01;118848;1147;104551;-70
2020/12/25 08:41:25;;;;;;;89.97;38.10;;;;;;;4.40;72.63;99686.00;118890;1147;104550;-70
2020/12/25 08:43:54;;;;;;;88.87;44.67;;;;;;;4.36;72.71;99681.94;118822;1146;104927;-71
2020/12/25 08:46:23;;;;;;;47.50;23.65;;;;;;;4.44;72.46;99695.34;118777;1147;104863;-71
2020/12/25 08:48:52;;;;;;;203.20;95.63;;;;;;;4.49;72.32;99692.33;118369;1147;104477;-70
2020/12/25 08:51:21;;;;;;;175.45;81.25;;;;;;;4.56;72.27;99698.79;118827;1148;104627;-71
2020/12/25 08:53:53;;;;;;;178.33;85.80;;;;;;;4.55;72.64;99694.45;118863;1147;104898;-70
2020/12/25 08:56:22;;;;;;;78.43;33.00;;;;;;;4.58;72.40;99704.78;118861;1147;104479;-70
2020/12/25 08:58:58;;;;;;;98.80;35.73;;;;;;;4.58;72.46;99701.28;118812;1147;104461;-70
2020/12/25 09:01:27;;;;;;;118.90;49.60;;;;;;;4.59;72.60;99708.25;118764;1147;104716;-70
2020/12/25 09:03:56;;;;;;;159.67;66.63;;;;;;;4.61;72.04;99709.80;118570;1147;104468;-70
2020/12/25 09:06:24;;;;;;;165.13;72.97;;;;;;;4.58;72.40;99715.35;118410;1147;104527;-70
2020/12/25 09:08:53;;;;;;;89.03;39.70;;;;;;;4.51;71.97;99717.65;118659;1147;104583;-71
2020/12/25 09:11:23;;;;;;;83.03;36.63;;;;;;;4.42;72.60;99713.13;118909;1147;104522;-69
2020/12/25 09:13:52;;;;;;;158.23;75.70;;;;;;;4.39;72.19;99712.53;118800;1148;104565;-70
2020/12/25 09:16:20;;;;;;;41.67;17.03;;;;;;;4.36;71.92;99715.45;118437;1147;104553;-69
2020/12/25 09:18:49;;;;;;;93.53;49.20;;;;;;;4.31;72.39;99711.38;118579;1148;104512;-69
2020/12/25 09:21:18;;;;;;;27.90;14.15;;;;;;;4.29;72.27;99715.09;118753;1147;104534;-69
2020/12/25 09:23:46;;;;;;;19.77;10.60;;;;;;;4.26;72.43;99724.13;118858;1147;104545;-70
2020/12/25 09:26:15;;;;;;;16.97;11.97;;;;;;;4.24;72.73;99720.77;118822;1147;104469;-70
2020/12/25 09:28:44;;;;;;;9.83;5.63;;;;;;;4.15;72.41;99724.16;118728;1147;104549;-69
2020/12/25 09:31:13;;;;;;;9.20;6.63;;;;;;;4.13;72.68;99734.00;118931;1147;104572;-69
2020/12/25 09:33:42;;;;;;;18.53;11.63;;;;;;;4.10;72.74;99719.26;118856;1148;104522;-71
2020/12/25 09:36:11;;;;;;;20.90;14.13;;;;;;;4.11;72.68;99735.94;118855;1147;104499;-70
2020/12/25 09:38:43;;;;;;;14.23;8.93;;;;;;;4.13;72.49;99747.20;118861;1148;104468;-69
2020/12/25 09:41:13;;;;;;;16.63;10.13;;;;;;;4.17;72.60;99745.98;118761;1147;104815;-70
2020/12/25 09:43:41;;;;;;;25.77;16.63;;;;;;;4.14;72.42;99756.82;118730;1147;104553;-70
2020/12/25 09:46:10;;;;;;;10.23;6.20;;;;;;;4.10;72.74;99758.03;118323;1148;104465;-70
2020/12/25 09:48:38;;;;;;;13.80;8.43;;;;;;;4.13;72.64;99755.13;118768;1147;104455;-69
2020/12/25 09:51:06;;;;;;;18.17;11.33;;;;;;;4.17;72.63;99751.27;118947;1148;104558;-71
2020/12/25 09:53:35;;;;;;;11.03;6.47;;;;;;;4.25;72.46;99751.51;119048;1148;104453;-70
2020/12/25 09:56:03;;;;;;;30.70;18.20;;;;;;;4.26;72.58;99749.70;118844;1147;104492;-70
2020/12/25 09:58:31;;;;;;;158.20;69.43;;;;;;;4.29;72.95;99746.79;118856;1147;104514;-70
2020/12/25 10:00:59;;;;;;;76.47;28.43;;;;;;;4.26;71.86;99753.17;118914;1147;104649;-70
2020/12/25 10:03:27;;;;;;;67.57;28.03;;;;;;;4.21;72.34;99744.77;118815;1147;104598;-70
2020/12/25 10:05:56;;;;;;;37.37;17.77;;;;;;;4.18;72.61;99747.68;118737;1147;104473;-70
2020/12/25 10:08:24;;;;;;;31.17;17.77;;;;;;;4.19;72.97;99741.42;118827;1147;104470;-70
2020/12/25 10:10:53;;;;;;;37.55;20.50;;;;;;;4.22;72.67;99738.54;118852;1148;104864;-70
2020/12/25 10:13:22;;;;;;;19.87;11.57;;;;;;;4.24;72.68;99746.34;118792;1148;104546;-70
2020/12/25 10:15:52;;;;;;;15.20;9.27;;;;;;;4.26;72.79;99745.25;118843;1148;104458;-70
2020/12/25 10:18:21;;;;;;;13.60;7.75;;;;;;;4.25;72.49;99746.23;118853;1148;104456;-70
2020/12/25 10:20:49;;;;;;;10.40;6.25;;;;;;;4.21;72.75;99744.77;118940;1147;104547;-70
2020/12/25 10:23:17;;;;;;;9.03;5.97;;;;;;;4.25;72.29;99746.23;118835;1147;104541;-71
2020/12/25 10:25:45;;;;;;;9.87;5.80;;;;;;;4.29;72.52;99741.50;118836;1147;104473;-71
2020/12/25 10:28:15;;;;;;;8.90;6.00;;;;;;;4.32;72.65;99742.09;118851;1147;104466;-70
2020/12/25 10:30:43;;;;;;;12.27;7.40;;;;;;;4.31;72.36;99750.14;118899;1148;104560;-70
2020/12/25 10:33:11;;;;;;;10.53;6.13;;;;;;;4.27;72.69;99752.22;118872;1147;104652;-70
2020/12/25 10:35:39;;;;;;;8.07;4.80;;;;;;;4.22;72.31;99754.38;118772;1147;104552;-69
2020/12/25 10:38:07;;;;;;;9.83;5.80;;;;;;;4.19;72.78;99757.27;118845;1147;105043;-70
2020/12/25 10:40:36;;;;;;;9.07;6.67;;;;;;;4.17;72.79;99761.00;118857;1147;104604;-70
2020/12/25 10:43:04;;;;;;;11.67;6.90;;;;;;;4.17;72.87;99756.55;118869;1147;104550;-70
2020/12/25 10:45:32;;;;;;;9.13;5.60;;;;;;;4.18;72.40;99752.13;118873;1147;104951;-70
2020/12/25 10:48:00;;;;;;;7.97;4.50;;;;;;;4.15;72.77;99757.65;118843;1147;104467;-70
2020/12/25 10:50:29;;;;;;;5.60;4.10;;;;;;;4.17;72.38;99753.91;119048;1148;104623;-70
2020/12/25 10:52:57;;;;;;;7.83;3.80;;;;;;;4.23;72.35;99745.48;118842;1147;104546;-70
2020/12/25 10:55:25;;;;;;;7.33;4.70;;;;;;;4.25;72.56;99759.44;119003;1147;104546;-69
2020/12/25 10:57:53;;;;;;;6.35;4.10;;;;;;;4.28;72.51;99753.88;118903;1147;104476;-69
2020/12/25 11:00:21;;;;;;;6.90;4.07;;;;;;;4.33;72.61;99757.00;118903;1147;104639;-70
2020/12/25 11:02:50;;;;;;;8.57;4.90;;;;;;;4.35;72.45;99761.30;118897;1147;104513;-69
2020/12/25 11:05:18;;;;;;;7.90;4.17;;;;;;;4.32;72.17;99755.30;118822;1147;104455;-71
2020/12/25 11:07:46;;;;;;;7.40;4.03;;;;;;;4.36;72.60;99761.18;118899;1148;104555;-69
2020/12/25 11:10:15;;;;;;;10.30;5.67;;;;;;;4.36;72.30;99753.25;118877;1147;104595;-72
2020/12/25 11:12:43;;;;;;;9.67;4.90;;;;;;;4.37;72.54;99762.01;118821;1147;104543;-69
2020/12/25 11:15:12;;;;;;;7.50;4.20;;;;;;;4.36;72.31;99768.27;118512;1147;104477;-70
2020/12/25 11:17:40;;;;;;;7.93;4.10;;;;;;;4.31;72.39;99756.28;118844;1148;104937;-70
2020/12/25 11:20:08;;;;;;;8.15;4.50;;;;;;;4.32;72.23;99772.96;118956;1148;104726;-70
2020/12/25 11:22:36;;;;;;;7.05;3.90;;;;;;;4.33;72.29;99769.38;118794;1147;104556;-70
2020/12/25 11:25:04;;;;;;;5.40;3.25;;;;;;;4.32;72.27;99771.16;118521;1147;104978;-70
2020/12/25 11:27:33;;;;;;;6.13;3.43;;;;;;;4.32;71.82;99770.32;118402;1147;104559;-69
2020/12/25 11:30:01;;;;;;;7.27;4.20;;;;;;;4.31;72.23;99772.13;118634;1147;104613;-70